createdAt,value
2022-10-03T00:00:01.556Z,90.5
2022-10-03T00:01:03.134Z,90.6
2022-10-03T00:02:01.159Z,90.6
2022-10-03T00:03:01.148Z,90.7
2022-10-03T00:04:01.073Z,90.7
2022-10-03T00:05:01.087Z,90.8
2022-10-03T00:06:05.159Z,91
2022-10-03T00:07:01.813Z,91.1
2022-10-03T00:08:01.098Z,91.1
2022-10-03T00:09:01.116Z,91.3
2022-10-03T00:10:01.453Z,91.4
2022-10-03T00:11:07.584Z,91.3
2022-10-03T00:12:01.425Z,91.4
2022-10-03T00:13:02.688Z,91.7
2022-10-03T00:14:01.338Z,92.1
2022-10-03T00:15:01.145Z,92.6
2022-10-03T00:16:09.844Z,93
2022-10-03T00:17:01.461Z,93.7
2022-10-03T00:18:01.292Z,94.2
2022-10-03T00:19:01.997Z,94.4
2022-10-03T00:20:01.874Z,94.6
2022-10-03T00:21:10.705Z,94.6
2022-10-03T00:22:02.221Z,94.8
2022-10-03T00:23:02.208Z,95.1
2022-10-03T00:24:01.288Z,95.5
2022-10-03T00:25:01.308Z,95.7
2022-10-03T00:26:13.987Z,96.2
2022-10-03T00:27:01.697Z,96.5
2022-10-03T00:28:01.257Z,96.9
2022-10-03T00:29:00.923Z,97.2
2022-10-03T00:30:01.531Z,97.5
2022-10-03T00:31:01.189Z,97.9
2022-10-03T00:32:01.876Z,98.4
2022-10-03T00:33:01.884Z,98.6
2022-10-03T00:34:01.932Z,98.8
2022-10-03T00:35:01.081Z,99
2022-10-03T00:36:01.076Z,99.1
2022-10-03T00:37:01.175Z,99.3
2022-10-03T00:38:01.602Z,99.5
2022-10-03T00:39:01.100Z,99.6
2022-10-03T00:40:01.112Z,99.9
2022-10-03T00:41:01.115Z,99.9
2022-10-03T00:42:01.123Z,99.9
2022-10-03T00:43:01.135Z,99.9
2022-10-03T00:44:01.129Z,99.9
2022-10-03T00:45:01.146Z,99.9
2022-10-03T00:46:01.160Z,99.9
2022-10-03T00:47:01.531Z,99.9
2022-10-03T00:48:08.014Z,99.9
2022-10-03T00:49:01.728Z,99.9
2022-10-03T00:50:01.074Z,99.9
2022-10-03T00:51:01.084Z,99.9
2022-10-03T00:52:01.122Z,99.9
2022-10-03T00:53:01.095Z,99.9
2022-10-03T00:54:01.765Z,99.9
2022-10-03T00:55:01.103Z,99.9
2022-10-03T00:56:01.042Z,99.9
2022-10-03T00:57:01.419Z,99.9
2022-10-03T00:58:01.132Z,99.9
2022-10-03T00:59:02.582Z,99.9
2022-10-03T01:00:01.151Z,99.9
2022-10-03T01:01:01.156Z,99.9
2022-10-03T01:02:01.188Z,99.9
2022-10-03T01:03:01.962Z,99.9
2022-10-03T01:04:00.848Z,99.9
2022-10-03T01:05:00.614Z,99.9
2022-10-03T01:06:00.622Z,99.9
2022-10-03T01:07:00.275Z,99.9
2022-10-03T01:08:00.062Z,99.9
2022-10-03T01:08:59.670Z,99.9
2022-10-03T01:10:01.391Z,99.9
2022-10-03T01:11:01.823Z,99.9
2022-10-03T01:12:01.691Z,99.9
2022-10-03T01:13:01.792Z,99.9
2022-10-03T01:14:01.518Z,99.9
2022-10-03T01:15:01.445Z,99.9
2022-10-03T01:16:01.492Z,99.9
2022-10-03T01:17:01.143Z,99.9
2022-10-03T01:18:01.157Z,99.9
2022-10-03T01:19:00.869Z,99.9
2022-10-03T01:20:01.069Z,99.9
2022-10-03T01:21:01.131Z,99.9
2022-10-03T01:22:01.485Z,99.9
2022-10-03T01:23:01.650Z,99.9
2022-10-03T01:24:02.131Z,99.9
2022-10-03T01:25:02.185Z,99.9
2022-10-03T01:26:01.091Z,99.9
2022-10-03T01:27:01.107Z,99.9
2022-10-03T01:28:01.181Z,99.9
2022-10-03T01:29:01.052Z,99.9
2022-10-03T01:30:01.094Z,99.9
2022-10-03T01:31:01.291Z,99.9
2022-10-03T01:32:01.140Z,99.9
2022-10-03T01:33:01.393Z,99.9
2022-10-03T01:34:01.809Z,99.9
2022-10-03T01:35:02.739Z,99.9
2022-10-03T01:36:01.822Z,99.9
2022-10-03T01:37:01.710Z,99.9
2022-10-03T01:38:01.762Z,99.9
2022-10-03T01:39:01.754Z,99.9
2022-10-03T01:40:01.730Z,99.9
2022-10-03T01:41:02.345Z,99.9
2022-10-03T01:42:01.928Z,99.9
2022-10-03T01:43:04.164Z,99.9
2022-10-03T01:44:01.060Z,99.9
2022-10-03T01:45:00.705Z,99.9
2022-10-03T01:46:00.309Z,99.9
2022-10-03T01:46:59.898Z,99.9
2022-10-03T01:47:59.492Z,99.9
2022-10-03T01:49:01.683Z,99.9
2022-10-03T01:50:01.159Z,99.9
2022-10-03T01:51:02.406Z,99.9
2022-10-03T01:52:02.780Z,99.9
2022-10-03T01:53:02.091Z,99.9
2022-10-03T01:54:01.142Z,99.9
2022-10-03T01:55:01.463Z,99.9
2022-10-03T01:56:01.097Z,99.9
2022-10-03T01:57:04.936Z,99.9
2022-10-03T01:58:01.800Z,99.9
2022-10-03T01:59:01.184Z,99.9
2022-10-03T02:00:01.993Z,99.9
2022-10-03T02:01:01.640Z,99.9
2022-10-03T02:02:06.763Z,99.9
2022-10-03T02:03:01.213Z,99.9
2022-10-03T02:04:01.141Z,99.9
2022-10-03T02:05:01.159Z,99.9
2022-10-03T02:06:01.425Z,99.9
2022-10-03T02:07:11.876Z,99.9
2022-10-03T02:08:02.722Z,99.9
2022-10-03T02:09:00.593Z,99.9
2022-10-03T02:10:00.152Z,99.9
2022-10-03T02:10:59.750Z,99.9
2022-10-03T02:12:14.460Z,99.9
2022-10-03T02:13:01.792Z,99.9
2022-10-03T02:14:01.765Z,99.9
2022-10-03T02:15:02.253Z,99.9
2022-10-03T02:16:01.854Z,99.9
2022-10-03T02:17:17.506Z,99.9
2022-10-03T02:18:01.134Z,99.9
2022-10-03T02:19:01.330Z,99.9
2022-10-03T02:20:01.807Z,99.9
2022-10-03T02:21:01.283Z,99.9
2022-10-03T02:22:01.966Z,99.9
2022-10-03T02:23:02.120Z,99.9
2022-10-03T02:24:01.088Z,99.9
2022-10-03T02:25:01.088Z,99.9
2022-10-03T02:26:01.077Z,99.9
2022-10-03T02:27:01.047Z,99.9
2022-10-03T02:28:01.134Z,99.9
2022-10-03T02:29:01.227Z,99.9
2022-10-03T02:30:01.106Z,99.9
2022-10-03T02:31:01.458Z,99.9
2022-10-03T02:32:01.708Z,99.9
2022-10-03T02:33:01.923Z,99.9
2022-10-03T02:34:01.326Z,99.9
2022-10-03T02:35:01.184Z,99.9
2022-10-03T02:36:01.217Z,99.9
2022-10-03T02:37:01.227Z,99.9
2022-10-03T02:38:01.072Z,99.9
2022-10-03T02:39:01.061Z,99.9
2022-10-03T02:40:01.530Z,99.9
2022-10-03T02:41:01.470Z,99.9
2022-10-03T02:42:02.389Z,99.9
2022-10-03T02:43:02.821Z,99.9
2022-10-03T02:44:02.119Z,99.9
2022-10-03T02:45:01.915Z,99.9
2022-10-03T02:46:01.156Z,99.9
2022-10-03T02:47:03.969Z,99.6
2022-10-03T02:48:27.131Z,99.4
2022-10-03T02:49:01.122Z,99.3
2022-10-03T02:50:01.521Z,99.3
2022-10-03T02:51:01.039Z,99.2
2022-10-03T02:52:01.037Z,99.1
2022-10-03T02:53:01.177Z,99.3
2022-10-03T02:54:01.193Z,97.9
2022-10-03T02:55:01.789Z,97.8
2022-10-03T02:56:01.738Z,97.5
2022-10-03T02:57:01.234Z,97.4
2022-10-03T02:58:01.157Z,97.4
2022-10-03T02:59:01.208Z,97.1
2022-10-03T03:00:02.295Z,96.6
2022-10-03T03:01:01.980Z,96.6
2022-10-03T03:02:01.646Z,96.7
2022-10-03T03:03:01.624Z,96.6
2022-10-03T03:04:01.858Z,96.4
2022-10-03T03:05:04.798Z,96.4
2022-10-03T03:06:01.714Z,96.1
2022-10-03T03:07:01.268Z,95.6
2022-10-03T03:08:00.938Z,95.4
2022-10-03T03:09:00.971Z,95.3
2022-10-03T03:10:07.610Z,95.3
2022-10-03T03:11:01.070Z,95.2
2022-10-03T03:12:01.311Z,95.1
2022-10-03T03:13:00.774Z,95.1
2022-10-03T03:14:00.356Z,95.2
2022-10-03T03:15:10.619Z,94.7
2022-10-03T03:16:01.290Z,94.4
2022-10-03T03:17:02.125Z,94
2022-10-03T03:18:02.143Z,94
2022-10-03T03:19:00.809Z,93.8
2022-10-03T03:20:12.363Z,93.7
2022-10-03T03:21:01.440Z,93.4
2022-10-03T03:22:02.039Z,93.2
2022-10-03T03:23:02.155Z,93.2
2022-10-03T03:24:01.146Z,93.2
2022-10-03T03:25:15.754Z,93.2
2022-10-03T03:26:02.690Z,93.1
2022-10-03T03:27:01.378Z,93.3
2022-10-03T03:28:02.284Z,93.2
2022-10-03T03:29:02.018Z,93.2
2022-10-03T03:30:01.086Z,92.7
2022-10-03T03:31:01.089Z,92.4
2022-10-03T03:32:01.515Z,92.4
2022-10-03T03:33:01.105Z,92.5
2022-10-03T03:34:01.112Z,92.3
2022-10-03T03:35:01.069Z,92.4
2022-10-03T03:36:01.116Z,92.5
2022-10-03T03:37:01.128Z,92.4
2022-10-03T03:38:01.147Z,92.3
2022-10-03T03:39:01.057Z,92.3
2022-10-03T03:40:01.398Z,92.2
2022-10-03T03:41:01.188Z,92.2
2022-10-03T03:42:01.369Z,92.1
2022-10-03T03:43:01.309Z,91.9
2022-10-03T03:44:01.537Z,91.5
2022-10-03T03:45:01.998Z,91.2
2022-10-03T03:46:01.299Z,91.1
2022-10-03T03:47:01.113Z,91
2022-10-03T03:48:01.128Z,90.9
2022-10-03T03:49:01.130Z,91
2022-10-03T03:50:01.401Z,90.9
2022-10-03T03:51:01.571Z,90.7
2022-10-03T03:52:02.330Z,90.7
2022-10-03T03:53:01.195Z,90.7
2022-10-03T03:53:59.910Z,90.8
2022-10-03T03:54:59.493Z,90.6
2022-10-03T03:56:01.138Z,90.7
2022-10-03T03:57:00.651Z,90.6
2022-10-03T03:58:00.367Z,90.5
2022-10-03T03:59:00.039Z,90.7
2022-10-03T03:59:59.635Z,90.7
2022-10-03T04:01:01.428Z,90.6
2022-10-03T04:02:01.481Z,90.6
2022-10-03T04:03:02.222Z,90.6
2022-10-03T04:04:01.276Z,90.5
2022-10-03T04:05:01.116Z,90.4
2022-10-03T04:06:01.258Z,90.1
2022-10-03T04:07:01.243Z,90.2
2022-10-03T04:08:01.147Z,90.2
2022-10-03T04:09:02.088Z,90.3
2022-10-03T04:10:01.453Z,90.3
2022-10-03T04:11:01.181Z,90.5
2022-10-03T04:12:01.047Z,90.4
2022-10-03T04:13:01.114Z,90.2
2022-10-03T04:14:01.065Z,90.2
2022-10-03T04:15:01.493Z,90.2
2022-10-03T04:16:01.149Z,90.3
2022-10-03T04:17:00.777Z,90.1
2022-10-03T04:18:00.404Z,90.2
2022-10-03T04:19:00.005Z,90.2
2022-10-03T04:19:59.739Z,89.9
2022-10-03T04:21:01.780Z,90
2022-10-03T04:22:01.345Z,90
2022-10-03T04:23:01.330Z,90.1
2022-10-03T04:24:01.901Z,89.9
2022-10-03T04:25:01.181Z,89.7
2022-10-03T04:26:01.271Z,90
2022-10-03T04:27:01.857Z,89.6
2022-10-03T04:28:01.467Z,89.2
2022-10-03T04:29:01.163Z,88.7
2022-10-03T04:30:01.384Z,87.8
2022-10-03T04:31:01.116Z,87.5
2022-10-03T04:32:01.174Z,87.5
2022-10-03T04:33:01.131Z,87.5
2022-10-03T04:34:01.102Z,86.2
2022-10-03T04:35:00.893Z,85.8
2022-10-03T04:36:01.480Z,85.8
2022-10-03T04:37:01.110Z,85.5
2022-10-03T04:38:01.201Z,85.6
2022-10-03T04:39:01.141Z,83
2022-10-03T04:40:01.140Z,81.7
2022-10-03T04:41:01.060Z,81.1
2022-10-03T04:42:01.065Z,81.8
2022-10-03T04:43:01.159Z,81.3
2022-10-03T04:44:01.425Z,80.2
2022-10-03T04:45:01.135Z,79.9
2022-10-03T04:46:01.812Z,78.9
2022-10-03T04:47:01.067Z,78.7
2022-10-03T04:48:01.225Z,78.4
2022-10-03T04:49:01.086Z,77.7
2022-10-03T04:50:01.089Z,77.4
2022-10-03T04:51:04.298Z,77.4
2022-10-03T04:52:01.504Z,77.2
2022-10-03T04:53:01.118Z,77.2
2022-10-03T04:54:01.121Z,76.8
2022-10-03T04:55:00.939Z,77.3
2022-10-03T04:56:07.564Z,77.4
2022-10-03T04:57:01.175Z,77.7
2022-10-03T04:58:04.940Z,77.4
2022-10-03T04:59:01.050Z,77.4
2022-10-03T05:00:01.066Z,77.4
2022-10-03T05:01:10.195Z,77.4
2022-10-03T05:02:01.819Z,77.9
2022-10-03T05:03:01.074Z,77.5
2022-10-03T05:04:01.397Z,77.5
2022-10-03T05:05:01.084Z,77.4
2022-10-03T05:06:13.271Z,77.5
2022-10-03T05:07:01.103Z,77.7
2022-10-03T05:08:01.077Z,77.4
2022-10-03T05:09:01.192Z,77
2022-10-03T05:10:05.846Z,75.7
2022-10-03T05:11:15.881Z,75.4
2022-10-03T05:12:01.518Z,74.4
2022-10-03T05:13:01.522Z,72.7
2022-10-03T05:14:02.370Z,72.3
2022-10-03T05:15:01.213Z,71.4
2022-10-03T05:16:01.985Z,71.8
2022-10-03T05:17:00.950Z,71.1
2022-10-03T05:18:00.664Z,70.9
2022-10-03T05:19:00.449Z,69.5
2022-10-03T05:20:00.473Z,69.5
2022-10-03T05:21:00.165Z,69.6
2022-10-03T05:21:59.940Z,69.8
2022-10-03T05:22:59.546Z,69
2022-10-03T05:24:01.211Z,69
2022-10-03T05:25:01.868Z,68.7
2022-10-03T05:26:23.136Z,69.2
2022-10-03T05:27:01.184Z,70.6
2022-10-03T05:28:01.570Z,70.8
2022-10-03T05:29:01.894Z,70.8
2022-10-03T05:30:01.163Z,71.7
2022-10-03T05:31:01.166Z,72.1
2022-10-03T05:32:01.121Z,73.5
2022-10-03T05:33:05.002Z,74.5
2022-10-03T05:34:01.075Z,75
2022-10-03T05:35:01.274Z,76.3
2022-10-03T05:36:01.088Z,76.3
2022-10-03T05:37:01.224Z,76.5
2022-10-03T05:38:01.065Z,76.8
2022-10-03T05:39:01.158Z,77.2
2022-10-03T05:40:01.123Z,76.8
2022-10-03T05:41:01.119Z,77.4
2022-10-03T05:42:21.381Z,77.4
2022-10-03T05:43:01.139Z,77.8
2022-10-03T05:44:01.139Z,78
2022-10-03T05:45:01.145Z,77.9
2022-10-03T05:46:01.227Z,78.4
2022-10-03T05:47:02.132Z,79.9
2022-10-03T05:48:02.365Z,80.2
2022-10-03T05:49:01.389Z,80.4
2022-10-03T05:50:01.049Z,80.7
2022-10-03T05:51:01.059Z,80.6
2022-10-03T05:52:01.091Z,80.6
2022-10-03T05:53:01.048Z,80.7
2022-10-03T05:54:00.676Z,83.5
2022-10-03T05:55:00.417Z,83.8
2022-10-03T05:56:00.180Z,84.1
2022-10-03T05:57:00.209Z,84.4
2022-10-03T05:57:59.811Z,85.4
2022-10-03T05:59:01.683Z,87.5
2022-10-03T06:00:04.433Z,87.9
2022-10-03T06:01:01.543Z,88.6
2022-10-03T06:02:01.179Z,89.7
2022-10-03T06:03:01.202Z,88.8
2022-10-03T06:04:05.655Z,89.4
2022-10-03T06:05:01.387Z,90
2022-10-03T06:06:02.077Z,90.3
2022-10-03T06:07:01.201Z,89.8
2022-10-03T06:08:01.111Z,90
2022-10-03T06:09:01.109Z,89.7
2022-10-03T06:10:01.115Z,89.5
2022-10-03T06:11:01.174Z,89.6
2022-10-03T06:12:01.113Z,88
2022-10-03T06:13:01.122Z,87.8
2022-10-03T06:14:01.659Z,87.6
2022-10-03T06:15:00.814Z,87.8
2022-10-03T06:16:00.479Z,87.4
2022-10-03T06:17:00.131Z,87.2
2022-10-03T06:17:59.702Z,86.2
2022-10-03T06:19:01.354Z,86.3
2022-10-03T06:20:01.988Z,86
2022-10-03T06:21:01.986Z,86
2022-10-03T06:22:01.469Z,86.6
2022-10-03T06:23:05.543Z,86.5
2022-10-03T06:24:01.404Z,86.5
2022-10-03T06:25:01.153Z,86.3
2022-10-03T06:26:01.263Z,86.2
2022-10-03T06:27:01.107Z,86.1
2022-10-03T06:28:01.498Z,85.4
2022-10-03T06:29:01.107Z,85.2
2022-10-03T06:30:01.130Z,85.2
2022-10-03T06:31:01.206Z,84.9
2022-10-03T06:32:00.311Z,83.6
2022-10-03T06:33:00.025Z,84.4
2022-10-03T06:33:59.608Z,84.7
2022-10-03T06:35:01.742Z,84.6
2022-10-03T06:36:01.391Z,84
2022-10-03T06:37:03.425Z,84.8
2022-10-03T06:38:02.093Z,83.9
2022-10-03T06:39:02.610Z,83.7
2022-10-03T06:40:01.116Z,83.2
2022-10-03T06:41:01.094Z,82.4
2022-10-03T06:42:05.691Z,82.7
2022-10-03T06:43:01.520Z,81.5
2022-10-03T06:44:08.801Z,79.9
2022-10-03T06:45:01.264Z,79.6
2022-10-03T06:45:59.686Z,79.5
2022-10-03T06:47:09.178Z,79.4
2022-10-03T06:48:01.338Z,79.9
2022-10-03T06:49:01.816Z,79.1
2022-10-03T06:50:01.968Z,78.8
2022-10-03T06:51:01.728Z,79.4
2022-10-03T06:52:11.470Z,79.8
2022-10-03T06:53:02.283Z,79.3
2022-10-03T06:54:02.056Z,79.1
2022-10-03T06:55:01.605Z,79.1
2022-10-03T06:56:01.112Z,77.6
2022-10-03T06:57:14.919Z,77.5
2022-10-03T06:58:01.115Z,77.7
2022-10-03T06:59:01.080Z,78.5
2022-10-03T07:00:01.133Z,77.6
2022-10-03T07:01:01.212Z,76.9
2022-10-03T07:02:16.875Z,76
2022-10-03T07:03:01.251Z,73.7
2022-10-03T07:04:00.546Z,73.8
2022-10-03T07:05:00.139Z,73.6
2022-10-03T07:05:59.709Z,73.3
2022-10-03T07:07:01.360Z,71.9
2022-10-03T07:08:02.606Z,69.1
2022-10-03T07:09:01.779Z,70.5
2022-10-03T07:10:02.228Z,70.3
2022-10-03T07:11:01.495Z,70
2022-10-03T07:12:00.382Z,70.1
2022-10-03T07:13:00.031Z,69.2
2022-10-03T07:13:59.663Z,69.5
2022-10-03T07:15:01.630Z,68.5
2022-10-03T07:17:01.274Z,68
2022-10-03T07:18:01.391Z,68.9
2022-10-03T07:19:01.627Z,68.2
2022-10-03T07:20:01.315Z,68.2
2022-10-03T07:21:01.181Z,68.2
2022-10-03T07:22:01.054Z,67.3
2022-10-03T07:23:01.072Z,66.4
2022-10-03T07:24:00.770Z,66.3
2022-10-03T07:25:00.456Z,66.4
2022-10-03T07:26:00.123Z,66.6
2022-10-03T07:26:59.743Z,66.1
2022-10-03T07:28:01.439Z,63.5
2022-10-03T07:29:01.089Z,62.3
2022-10-03T07:30:00.685Z,61.6
2022-10-03T07:31:00.521Z,61.9
2022-10-03T07:32:00.217Z,61.3
2022-10-03T07:32:59.827Z,60.5
2022-10-03T07:34:01.535Z,60.3
2022-10-03T07:35:01.175Z,61.7
2022-10-03T07:36:01.149Z,58.2
2022-10-03T07:37:01.328Z,59.7
2022-10-03T07:38:01.917Z,59.7
2022-10-03T07:39:00.955Z,60.1
2022-10-03T07:40:01.083Z,60.7
2022-10-03T07:41:01.075Z,60.2
2022-10-03T07:42:01.083Z,58.1
2022-10-03T07:43:01.061Z,58.1
2022-10-03T07:44:01.191Z,57.7
2022-10-03T07:45:01.420Z,58.5
2022-10-03T07:46:01.475Z,58.2
2022-10-03T07:47:01.533Z,57.5
2022-10-03T07:48:01.129Z,56.7
2022-10-03T07:49:00.697Z,55.9
2022-10-03T07:50:00.314Z,55.8
2022-10-03T07:50:59.897Z,55.6
2022-10-03T07:51:59.491Z,55.9
2022-10-03T07:53:01.148Z,56.4
2022-10-03T07:54:01.450Z,56.5
2022-10-03T07:55:00.958Z,56.8
2022-10-03T07:56:03.802Z,55.1
2022-10-03T07:57:01.082Z,54.9
2022-10-03T07:58:01.091Z,54.3
2022-10-03T07:59:00.667Z,53.6
2022-10-03T08:00:00.287Z,52.6
2022-10-03T08:00:59.970Z,52.5
2022-10-03T08:01:59.665Z,53.1
2022-10-03T08:03:01.498Z,52.1
2022-10-03T08:04:01.542Z,52.1
2022-10-03T08:05:01.121Z,50.6
2022-10-03T08:06:01.136Z,51.1
2022-10-03T08:07:01.144Z,51.3
2022-10-03T08:08:00.725Z,50.7
2022-10-03T08:09:00.265Z,51.4
2022-10-03T08:09:59.915Z,51.2
2022-10-03T08:10:59.515Z,50.7
2022-10-03T08:12:01.070Z,50.3
2022-10-03T08:13:01.870Z,49.2
2022-10-03T08:14:00.793Z,48.8
2022-10-03T08:15:00.551Z,49.5
2022-10-03T08:16:00.269Z,48.5
2022-10-03T08:16:59.856Z,48.9
2022-10-03T08:18:04.018Z,49.1
2022-10-03T08:19:00.761Z,49
2022-10-03T08:20:00.394Z,49
2022-10-03T08:21:00.094Z,47.5
2022-10-03T08:21:59.752Z,47.3
2022-10-03T08:23:08.154Z,47.2
2022-10-03T08:24:01.346Z,47.9
2022-10-03T08:25:02.932Z,48.3
2022-10-03T08:26:01.055Z,49.1
2022-10-03T08:27:01.068Z,48.6
2022-10-03T08:28:11.664Z,48
2022-10-03T08:29:00.657Z,48.5
2022-10-03T08:30:00.309Z,48.5
2022-10-03T08:31:00.090Z,48.2
2022-10-03T08:31:59.777Z,48.2
2022-10-03T08:33:15.364Z,48.5
2022-10-03T08:34:02.502Z,48.8
2022-10-03T08:35:00.606Z,48.3
2022-10-03T08:36:00.195Z,47.6
2022-10-03T08:36:59.733Z,46.9
2022-10-03T08:38:01.343Z,46.4
2022-10-03T08:39:00.533Z,46.1
2022-10-03T08:40:00.145Z,45.9
2022-10-03T08:41:00.010Z,46.3
2022-10-03T08:41:59.751Z,46.7
2022-10-03T08:43:01.382Z,46.7
2022-10-03T08:44:02.356Z,46
2022-10-03T08:45:02.358Z,44.1
2022-10-03T08:46:01.169Z,44.9
2022-10-03T08:47:01.100Z,45.3
2022-10-03T08:48:01.119Z,45.3
2022-10-03T08:49:01.107Z,45.8
2022-10-03T08:50:05.342Z,44.8
2022-10-03T08:51:01.039Z,44.7
2022-10-03T08:52:01.342Z,45.1
2022-10-03T08:53:01.063Z,45.1
2022-10-03T08:54:01.138Z,45.6
2022-10-03T08:55:00.694Z,45.1
2022-10-03T08:56:00.380Z,44.8
2022-10-03T08:57:00.304Z,44.5
2022-10-03T08:58:00.331Z,44
2022-10-03T08:58:59.945Z,42.1
2022-10-03T08:59:59.529Z,42.7
2022-10-03T09:01:01.603Z,44.7
2022-10-03T09:02:01.740Z,46.3
2022-10-03T09:03:31.468Z,43.2
2022-10-03T09:04:01.505Z,41.9
2022-10-03T09:05:01.111Z,41.2
2022-10-03T09:06:01.496Z,40.4
2022-10-03T09:07:17.901Z,40.7
2022-10-03T09:08:01.075Z,40.4
2022-10-03T09:09:00.706Z,41.1
2022-10-03T09:10:00.358Z,40.2
2022-10-03T09:11:00.002Z,39.2
2022-10-03T09:11:59.572Z,36.4
2022-10-03T09:13:01.737Z,36.5
2022-10-03T09:14:01.609Z,36.5
2022-10-03T09:15:01.447Z,36.2
2022-10-03T09:16:02.348Z,35.1
2022-10-03T09:17:00.760Z,33.9
2022-10-03T09:18:00.368Z,33.2
2022-10-03T09:18:59.930Z,32.4
2022-10-03T09:20:06.744Z,32
2022-10-03T09:21:01.544Z,31.8
2022-10-03T09:22:01.115Z,32
2022-10-03T09:23:01.752Z,30.9
2022-10-03T09:24:07.881Z,30.8
2022-10-03T09:25:01.923Z,31
2022-10-03T09:26:02.612Z,30.8
2022-10-03T09:27:02.269Z,31.5
2022-10-03T09:28:01.976Z,30.7
2022-10-03T09:29:01.158Z,31.3
2022-10-03T09:30:01.070Z,30.7
2022-10-03T09:31:01.124Z,29.8
2022-10-03T09:32:01.770Z,29.2
2022-10-03T09:33:01.445Z,29.4
2022-10-03T09:34:01.283Z,29.6
2022-10-03T09:35:06.792Z,29.4
2022-10-03T09:36:01.360Z,29.3
2022-10-03T09:37:00.887Z,29.4
2022-10-03T09:38:01.122Z,29.7
2022-10-03T09:39:00.516Z,29.4
2022-10-03T09:40:00.653Z,29.4
2022-10-03T09:41:00.494Z,29
2022-10-03T09:42:00.238Z,28.7
2022-10-03T09:42:59.814Z,28.8
2022-10-03T09:44:01.455Z,29
2022-10-03T09:45:02.078Z,29.1
2022-10-03T09:46:02.075Z,29.6
2022-10-03T09:47:01.492Z,29.1
2022-10-03T09:48:01.163Z,29.2
2022-10-03T09:49:00.771Z,29.2
2022-10-03T09:50:00.369Z,29.3
2022-10-03T09:51:00.042Z,28.9
2022-10-03T09:51:59.679Z,28.9
2022-10-03T09:53:01.429Z,29.6
2022-10-03T09:53:59.893Z,29.9
2022-10-03T09:55:00.216Z,29.9
2022-10-03T09:55:59.867Z,30.1
2022-10-03T09:56:59.782Z,30.1
2022-10-03T09:58:00.234Z,29.5
2022-10-03T09:58:59.803Z,29.6
2022-10-03T10:00:01.449Z,29.6
2022-10-03T10:01:04.719Z,29
2022-10-03T10:02:01.119Z,28.9
2022-10-03T10:03:01.093Z,29.1
2022-10-03T10:04:00.944Z,28.2
2022-10-03T10:05:01.534Z,28.5
2022-10-03T10:06:01.429Z,28.7
2022-10-03T10:07:01.058Z,28.1
2022-10-03T10:08:01.335Z,27.6
2022-10-03T10:09:03.160Z,28
2022-10-03T10:10:02.020Z,28.1
2022-10-03T10:11:01.695Z,29
2022-10-03T10:12:01.049Z,28.7
2022-10-03T10:13:01.197Z,28.7
2022-10-03T10:14:08.040Z,29
2022-10-03T10:15:01.459Z,28.9
2022-10-03T10:16:02.190Z,28.4
2022-10-03T10:17:00.860Z,27.4
2022-10-03T10:18:01.081Z,25.5
2022-10-03T10:19:08.968Z,25.4
2022-10-03T10:20:01.045Z,25.3
2022-10-03T10:21:01.046Z,23.8
2022-10-03T10:22:01.443Z,22.5
2022-10-03T10:23:02.126Z,22.1
2022-10-03T10:24:11.983Z,22.6
2022-10-03T10:25:01.118Z,22.2
2022-10-03T10:26:01.125Z,22.1
2022-10-03T10:27:01.127Z,21.2
2022-10-03T10:28:01.108Z,20
2022-10-03T10:29:13.754Z,18.8
2022-10-03T10:30:01.154Z,19
2022-10-03T10:31:01.197Z,18.3
2022-10-03T10:32:00.969Z,17.5
2022-10-03T10:33:01.495Z,17
2022-10-03T10:34:10.864Z,16.9
2022-10-03T10:35:02.710Z,16.4
2022-10-03T10:36:01.480Z,16.1
2022-10-03T10:37:01.204Z,16.1
2022-10-03T10:38:01.514Z,16.4
2022-10-03T10:39:00.755Z,16.2
2022-10-03T10:40:00.328Z,15.9
2022-10-03T10:41:03.810Z,15.9
2022-10-03T10:42:01.091Z,16.1
2022-10-03T10:43:04.779Z,15.9
2022-10-03T10:44:04.001Z,16.2
2022-10-03T10:45:01.061Z,15.7
2022-10-03T10:46:01.198Z,16
2022-10-03T10:47:01.953Z,16
2022-10-03T10:48:02.766Z,16.4
2022-10-03T10:49:03.863Z,15.1
2022-10-03T10:50:01.436Z,14
2022-10-03T10:51:01.456Z,14.2
2022-10-03T10:52:01.443Z,14.1
2022-10-03T10:53:01.475Z,13.4
2022-10-03T10:54:01.176Z,11.5
2022-10-03T10:55:00.768Z,11.8
2022-10-03T10:56:00.325Z,11.9
2022-10-03T10:56:59.990Z,11
2022-10-03T10:57:59.584Z,10.9
2022-10-03T10:59:01.143Z,10.4
2022-10-03T11:00:01.073Z,10.4
2022-10-03T11:01:01.870Z,10.4
2022-10-03T11:02:01.550Z,10.7
2022-10-03T11:03:00.862Z,11.1
2022-10-03T11:04:00.588Z,10.4
2022-10-03T11:05:00.359Z,10.6
2022-10-03T11:06:00.008Z,10.1
2022-10-03T11:06:59.747Z,10.4
2022-10-03T11:08:01.888Z,10.4
2022-10-03T11:09:01.395Z,10.5
2022-10-03T11:10:01.452Z,10.1
2022-10-03T11:11:02.128Z,9.8
2022-10-03T11:12:02.027Z,9.1
2022-10-03T11:13:01.128Z,8.7
2022-10-03T11:14:01.025Z,7.6
2022-10-03T11:15:01.822Z,7.5
2022-10-03T11:16:00.713Z,6.5
2022-10-03T11:17:00.368Z,7
2022-10-03T11:18:00.127Z,7.2
2022-10-03T11:18:59.830Z,7.1
2022-10-03T11:20:01.469Z,7.2
2022-10-03T11:21:02.176Z,7.3
2022-10-03T11:22:02.121Z,7.6
2022-10-03T11:23:04.702Z,6.3
2022-10-03T11:24:00.788Z,4.9
2022-10-03T11:25:00.323Z,5.4
2022-10-03T11:25:59.958Z,5.9
2022-10-03T11:26:59.745Z,5.3
2022-10-03T11:28:01.928Z,4.5
2022-10-03T11:29:01.114Z,4.5
2022-10-03T11:30:00.936Z,2.8
2022-10-03T11:31:01.477Z,1
2022-10-03T11:32:02.957Z,1
2022-10-03T11:33:01.156Z,1
2022-10-03T11:34:00.676Z,1
2022-10-03T11:35:00.280Z,1
2022-10-03T11:35:59.924Z,1
2022-10-03T11:36:59.514Z,1
2022-10-03T11:38:01.557Z,1
2022-10-03T11:39:02.240Z,1
2022-10-03T11:40:01.223Z,1
2022-10-03T11:41:01.141Z,1
2022-10-03T11:42:01.198Z,1
2022-10-03T11:43:01.115Z,1
2022-10-03T11:44:02.071Z,1
2022-10-03T11:45:08.011Z,1
2022-10-03T11:46:01.979Z,1
2022-10-03T11:47:01.128Z,1
2022-10-03T11:48:01.148Z,1
2022-10-03T11:49:00.730Z,1
2022-10-03T11:50:00.367Z,1
2022-10-03T11:51:00.132Z,1.3
2022-10-03T11:51:59.709Z,1.7
2022-10-03T11:53:01.504Z,1.6
2022-10-03T11:54:26.222Z,1.9
2022-10-03T11:55:01.502Z,2.1
2022-10-03T11:56:01.468Z,2
2022-10-03T11:57:01.047Z,2.3
2022-10-03T11:58:01.108Z,2.4
2022-10-03T11:59:00.700Z,2.2
2022-10-03T12:00:03.992Z,2.3
2022-10-03T12:01:01.448Z,2.2
2022-10-03T12:02:04.138Z,2.6
2022-10-03T12:03:01.097Z,2.6
2022-10-03T12:04:00.720Z,2.5
2022-10-03T12:05:05.508Z,2.5
2022-10-03T12:06:01.162Z,1.4
2022-10-03T12:07:01.857Z,1.4
2022-10-03T12:08:01.784Z,1.8
2022-10-03T12:09:01.400Z,2
2022-10-03T12:10:06.921Z,1.8
2022-10-03T12:11:01.066Z,2.1
2022-10-03T12:12:01.095Z,1.5
2022-10-03T12:13:01.113Z,1.3
2022-10-03T12:14:00.563Z,1.7
2022-10-03T12:15:08.510Z,2.1
2022-10-03T12:16:01.261Z,1.5
2022-10-03T12:17:02.333Z,1
2022-10-03T12:18:01.132Z,1
2022-10-03T12:19:01.146Z,1
2022-10-03T12:20:12.643Z,1
2022-10-03T12:21:01.258Z,1
2022-10-03T12:22:01.960Z,1
2022-10-03T12:23:01.987Z,1
2022-10-03T12:24:00.541Z,1
2022-10-03T12:25:14.460Z,1
2022-10-03T12:26:01.762Z,1
2022-10-03T12:27:01.222Z,1
2022-10-03T12:28:01.980Z,1
2022-10-03T12:29:00.890Z,1
2022-10-03T12:30:01.106Z,1
2022-10-03T12:31:01.055Z,1
2022-10-03T12:32:01.220Z,1
2022-10-03T12:33:02.356Z,1
2022-10-03T12:34:01.216Z,1
2022-10-03T12:35:01.145Z,1
2022-10-03T12:36:01.573Z,1
2022-10-03T12:37:01.232Z,1
2022-10-03T12:38:02.130Z,1
2022-10-03T12:39:00.953Z,1
2022-10-03T12:40:01.040Z,1
2022-10-03T12:41:01.119Z,1
2022-10-03T12:42:01.504Z,1
2022-10-03T12:43:01.085Z,1
2022-10-03T12:44:00.637Z,1
2022-10-03T12:45:00.207Z,1
2022-10-03T12:45:59.811Z,1
2022-10-03T12:47:03.356Z,1
2022-10-03T12:48:01.416Z,1
2022-10-03T12:49:01.003Z,1
2022-10-03T12:50:01.518Z,1
2022-10-03T12:51:01.132Z,1
2022-10-03T12:52:01.043Z,1
2022-10-03T12:53:01.160Z,1
2022-10-03T12:54:00.751Z,1
2022-10-03T12:55:00.344Z,1
2022-10-03T12:55:59.936Z,1
2022-10-03T12:56:59.538Z,1
2022-10-03T12:58:02.203Z,1
2022-10-03T12:59:01.336Z,1
2022-10-03T13:00:03.954Z,1
2022-10-03T13:01:02.072Z,1
2022-10-03T13:02:01.460Z,1
2022-10-03T13:03:01.110Z,1
2022-10-03T13:04:00.675Z,1
2022-10-03T13:05:00.398Z,1
2022-10-03T13:06:02.861Z,1
2022-10-03T13:07:03.651Z,1
2022-10-03T13:08:02.110Z,1
2022-10-03T13:09:00.889Z,1
2022-10-03T13:10:01.186Z,1
2022-10-03T13:11:01.397Z,1
2022-10-03T13:12:01.306Z,1
2022-10-03T13:13:01.253Z,1
2022-10-03T13:14:00.859Z,1
2022-10-03T13:15:01.471Z,1
2022-10-03T13:16:01.185Z,1
2022-10-03T13:17:01.423Z,1
2022-10-03T13:18:01.455Z,1
2022-10-03T13:19:05.711Z,1
2022-10-03T13:20:01.398Z,1
2022-10-03T13:21:01.128Z,1
2022-10-03T13:22:01.377Z,1
2022-10-03T13:23:03.884Z,1
2022-10-03T13:24:01.245Z,1
2022-10-03T13:25:01.370Z,1
2022-10-03T13:26:03.414Z,1
2022-10-03T13:27:01.058Z,1
2022-10-03T13:28:01.292Z,1
2022-10-03T13:29:00.647Z,1
2022-10-03T13:30:00.263Z,1
2022-10-03T13:31:00.043Z,1.4
2022-10-03T13:31:59.749Z,2
2022-10-03T13:33:01.398Z,2.6